createdAt,value
2023-07-20T00:01:02.522Z,101389.91
2023-07-20T00:03:20.600Z,101388.19
2023-07-20T00:05:26.304Z,101392.56
2023-07-20T00:07:29.986Z,101394.28
2023-07-20T00:09:33.910Z,101396.84
2023-07-20T00:11:39.960Z,101397.66
2023-07-20T00:13:43.640Z,101399.38
2023-07-20T00:15:47.354Z,101398.50
2023-07-20T00:17:51.400Z,101395.13
2023-07-20T00:19:56.452Z,101394.16
2023-07-20T00:22:00.571Z,101388.06
2023-07-20T00:24:04.318Z,101396.19
2023-07-20T00:26:07.980Z,101390.19
2023-07-20T00:28:11.799Z,101390.44
2023-07-20T00:30:16.014Z,101395.97
2023-07-20T00:32:20.796Z,101394.28
2023-07-20T00:34:24.470Z,101392.56
2023-07-20T00:36:29.491Z,101394.50
2023-07-20T00:38:32.765Z,101395.66
2023-07-20T00:40:39.358Z,101392.13
2023-07-20T00:42:43.103Z,101390.44
2023-07-20T00:44:46.787Z,101397.47
2023-07-20T00:46:50.574Z,101395.78
2023-07-20T00:48:55.293Z,101390.44
2023-07-20T00:51:00.771Z,101388.75
2023-07-20T00:53:07.569Z,101391.50
2023-07-20T00:55:11.714Z,101394.28
2023-07-20T00:57:17.534Z,101391.75
2023-07-20T00:59:21.239Z,101390.88
2023-07-20T01:01:24.184Z,101396.31
2023-07-20T01:03:28.129Z,101392.91
2023-07-20T01:05:43.380Z,101391.19
2023-07-20T01:07:55.910Z,101386.72
2023-07-20T01:10:08.512Z,101388.53
2023-07-20T01:12:22.861Z,101396.53
2023-07-20T01:14:26.930Z,101384.03
2023-07-20T01:16:30.269Z,101385.09
2023-07-20T01:18:33.973Z,101389.59
2023-07-20T01:20:38.835Z,101391.41
2023-07-20T01:23:10.393Z,101387.16
2023-07-20T01:25:38.356Z,101386.50
2023-07-20T01:28:18.203Z,101377.66
2023-07-20T01:30:46.941Z,101382.13
2023-07-20T01:32:54.568Z,101391.94
2023-07-20T01:35:01.328Z,101395.56
2023-07-20T01:37:06.062Z,101388.50
2023-07-20T01:39:09.763Z,101385.97
2023-07-20T01:41:13.199Z,101383.41
2023-07-20T01:43:16.764Z,101378.19
2023-07-20T01:45:21.114Z,101372.03
2023-07-20T01:47:24.838Z,101372.09
2023-07-20T01:49:30.082Z,101378.41
2023-07-20T01:51:33.716Z,101377.66
2023-07-20T01:53:36.314Z,101375.94
2023-07-20T01:55:39.903Z,101374.25
2023-07-20T01:57:43.409Z,101378.09
2023-07-20T01:59:47.203Z,101367.53
2023-07-20T02:01:50.792Z,101374.72
2023-07-20T02:03:55.300Z,101366.97
2023-07-20T02:06:00.347Z,101367.81
2023-07-20T02:08:03.531Z,101366.09
2023-07-20T02:10:08.285Z,101368.75
2023-07-20T02:12:12.750Z,101368.75
2023-07-20T02:14:16.444Z,101362.69
2023-07-20T02:16:20.226Z,101359.09
2023-07-20T02:18:24.719Z,101367.91
2023-07-20T02:20:28.866Z,101369.63
2023-07-20T02:22:34.034Z,101371.41
2023-07-20T02:24:36.641Z,101367.06
2023-07-20T02:26:40.515Z,101365.47
2023-07-20T02:28:44.149Z,101368.13
2023-07-20T02:30:51.558Z,101364.59
2023-07-20T02:32:59.931Z,101362.03
2023-07-20T02:35:06.326Z,101362.81
2023-07-20T02:37:12.440Z,101362.91
2023-07-20T02:39:16.553Z,101362.03
2023-07-20T02:41:20.645Z,101356.72
2023-07-20T02:43:24.391Z,101363.75
2023-07-20T02:45:28.705Z,101358.44
2023-07-20T02:47:32.655Z,101353.00
2023-07-20T02:49:36.918Z,101348.63
2023-07-20T02:51:40.708Z,101345.00
2023-07-20T02:53:44.306Z,101341.41
2023-07-20T02:55:49.710Z,101349.38
2023-07-20T02:57:53.266Z,101336.91
2023-07-20T02:59:57.359Z,101336.91
2023-07-20T03:02:01.762Z,101337.03
2023-07-20T03:04:06.688Z,101339.91
2023-07-20T03:06:11.919Z,101336.47
2023-07-20T03:08:15.789Z,101339.34
2023-07-20T03:10:18.897Z,101343.06
2023-07-20T03:12:24.142Z,101344.13
2023-07-20T03:14:28.622Z,101335.41
2023-07-20T03:16:34.179Z,101336.47
2023-07-20T03:18:38.753Z,101337.53
2023-07-20T03:20:42.422Z,101338.38
2023-07-20T03:22:46.705Z,101342.75
2023-07-20T03:24:50.559Z,101340.97
2023-07-20T03:26:55.912Z,101332.97
2023-07-20T03:29:01.162Z,101339.97
2023-07-20T03:31:05.360Z,101329.22
2023-07-20T03:33:11.994Z,101334.47
2023-07-20T03:35:17.106Z,101329.97
2023-07-20T03:37:20.815Z,101323.91
2023-07-20T03:39:25.679Z,101332.00
2023-07-20T03:41:29.898Z,101333.91
2023-07-20T03:43:35.959Z,101333.91
2023-07-20T03:45:39.934Z,101334.97
2023-07-20T03:47:43.541Z,101334.13
2023-07-20T03:49:48.689Z,101338.59
2023-07-20T03:51:53.442Z,101335.09
2023-07-20T03:53:57.643Z,101332.44
2023-07-20T03:56:01.296Z,101335.94
2023-07-20T03:58:04.974Z,101337.75
2023-07-20T04:00:10.670Z,101336.03
2023-07-20T04:02:18.562Z,101336.03
2023-07-20T04:04:22.680Z,101340.50
2023-07-20T04:06:26.651Z,101341.47
2023-07-20T04:08:30.582Z,101340.50
2023-07-20T04:10:34.426Z,101339.53
2023-07-20T04:12:38.228Z,101336.03
2023-07-20T04:14:41.822Z,101335.19
2023-07-20T04:16:45.339Z,101340.69
2023-07-20T04:18:49.270Z,101333.69
2023-07-20T04:20:52.843Z,101341.56
2023-07-20T04:22:56.612Z,101337.09
2023-07-20T04:25:00.247Z,101343.38
2023-07-20T04:27:04.426Z,101332.81
2023-07-20T04:29:09.946Z,101338.91
2023-07-20T04:31:18.441Z,101334.53
2023-07-20T04:33:22.872Z,101345.41
2023-07-20T04:35:51.328Z,101347.13
2023-07-20T04:37:58.909Z,101343.47
2023-07-20T04:40:04.912Z,101339.97
2023-07-20T04:42:08.742Z,101341.69
2023-07-20T04:44:12.712Z,101340.69
2023-07-20T04:46:16.383Z,101339.84
2023-07-20T04:48:21.091Z,101339.84
2023-07-20T04:50:27.154Z,101342.53
2023-07-20T04:52:42.983Z,101339.03
2023-07-20T04:54:50.470Z,101334.53
2023-07-20T04:56:54.271Z,101342.31
2023-07-20T04:59:00.579Z,101341.34
2023-07-20T05:01:06.226Z,101343.06
2023-07-20T05:03:12.173Z,101339.47
2023-07-20T05:05:16.960Z,101333.91
2023-07-20T05:07:20.634Z,101332.00
2023-07-20T05:09:26.120Z,101330.09
2023-07-20T05:11:29.892Z,101330.81
2023-07-20T05:13:34.275Z,101320.94
2023-07-20T05:15:37.762Z,101334.03
2023-07-20T05:17:42.769Z,101325.00
2023-07-20T05:19:47.341Z,101319.75
2023-07-20T05:21:51.000Z,101321.00
2023-07-20T05:23:54.788Z,101329.47
2023-07-20T05:26:00.909Z,101323.97
2023-07-20T05:28:04.647Z,101322.25
2023-07-20T05:30:09.575Z,101318.63
2023-07-20T05:32:13.452Z,101318.63
2023-07-20T05:34:18.276Z,101317.66
2023-07-20T05:36:21.687Z,101312.31
2023-07-20T05:38:25.127Z,101315.75
2023-07-20T05:40:28.833Z,101308.41
2023-07-20T05:42:33.683Z,101319.06
2023-07-20T05:44:39.858Z,101309.25
2023-07-20T05:46:56.435Z,101309.03
2023-07-20T05:49:01.443Z,101305.19
2023-07-20T05:51:05.292Z,101307.72
2023-07-20T05:53:09.483Z,101318.38
2023-07-20T05:55:14.497Z,101312.88
2023-07-20T05:57:18.427Z,101307.44
2023-07-20T05:59:25.725Z,101309.88
2023-07-20T06:01:29.745Z,101309.63
2023-07-20T06:03:32.287Z,101307.72
2023-07-20T06:05:35.854Z,101308.34
2023-07-20T06:07:39.757Z,101312.59
2023-07-20T06:09:43.126Z,101305.38
2023-07-20T06:11:47.338Z,101312.19
2023-07-20T06:13:52.309Z,101308.56
2023-07-20T06:15:59.063Z,101317.28
2023-07-20T06:18:02.762Z,101312.81
2023-07-20T06:20:08.486Z,101314.63
2023-07-20T06:22:12.191Z,101315.38
2023-07-20T06:24:15.997Z,101313.44
2023-07-20T06:26:21.514Z,101318.47
2023-07-20T06:28:26.019Z,101314.69
2023-07-20T06:30:30.157Z,101321.50
2023-07-20T06:32:35.878Z,101317.66
2023-07-20T06:34:39.966Z,101327.25
2023-07-20T06:36:43.983Z,101320.84
2023-07-20T06:40:56.545Z,101333.63
2023-07-20T06:45:07.624Z,101331.78
2023-07-20T06:47:14.228Z,101338.13
2023-07-20T06:49:29.561Z,101336.19
2023-07-20T06:51:32.455Z,101331.59
2023-07-20T06:53:36.592Z,101334.63
2023-07-20T06:55:42.090Z,101333.44
2023-07-20T06:57:49.152Z,101341.72
2023-07-20T06:59:53.463Z,101338.63
2023-07-20T07:01:57.332Z,101343.09
2023-07-20T07:04:01.368Z,101348.13
2023-07-20T07:06:06.879Z,101344.28
2023-07-20T07:08:10.505Z,101347.50
2023-07-20T07:10:14.125Z,101342.22
2023-07-20T07:12:17.998Z,101351.94
2023-07-20T07:14:30.615Z,101347.19
2023-07-20T07:18:42.708Z,101347.47
2023-07-20T07:20:52.114Z,101352.28
2023-07-20T07:22:58.404Z,101357.00
2023-07-20T07:25:02.036Z,101356.47
2023-07-20T07:27:06.369Z,101357.34
2023-07-20T07:29:10.080Z,101356.28
2023-07-20T07:31:14.171Z,101348.16
2023-07-20T07:33:17.983Z,101350.09
2023-07-20T07:35:21.838Z,101344.34
2023-07-20T07:37:25.468Z,101349.06
2023-07-20T07:41:36.865Z,101338.94
2023-07-20T07:43:41.251Z,101337.50
2023-07-20T07:45:44.868Z,101342.88
2023-07-20T07:47:47.568Z,101334.06
2023-07-20T07:49:51.756Z,101335.75
2023-07-20T07:51:55.512Z,101335.13
2023-07-20T07:53:59.216Z,101330.53
2023-07-20T07:56:04.416Z,101323.75
2023-07-20T07:58:08.071Z,101323.22
2023-07-20T08:00:15.709Z,101331.19
2023-07-20T08:02:19.363Z,101330.00
2023-07-20T08:04:22.954Z,101329.91
2023-07-20T08:06:27.183Z,101327.25
2023-07-20T08:08:32.066Z,101335.94
2023-07-20T08:10:35.784Z,101331.78
2023-07-20T08:12:40.845Z,101337.91
2023-07-20T08:14:44.476Z,101328.75
2023-07-20T08:16:48.943Z,101326.50
2023-07-20T08:18:52.680Z,101329.81
2023-07-20T08:20:57.007Z,101325.78
2023-07-20T08:23:00.951Z,101324.78
2023-07-20T08:25:04.636Z,101314.84
2023-07-20T08:27:08.557Z,101318.88
2023-07-20T08:29:12.763Z,101319.06
2023-07-20T08:31:16.660Z,101315.50
2023-07-20T08:33:21.568Z,101321.75
2023-07-20T08:35:24.167Z,101322.78
2023-07-20T08:37:27.921Z,101319.72
2023-07-20T08:39:31.845Z,101321.16
2023-07-20T08:41:36.898Z,101327.91
2023-07-20T08:43:45.036Z,101332.66
2023-07-20T08:45:52.642Z,101326.88
2023-07-20T08:47:58.402Z,101333.56
2023-07-20T08:50:03.775Z,101329.22
2023-07-20T08:52:07.586Z,101328.47
2023-07-20T08:54:15.192Z,101321.22
2023-07-20T08:56:19.446Z,101320.28
2023-07-20T08:58:23.561Z,101326.28
2023-07-20T09:00:27.409Z,101326.25
2023-07-20T09:02:36.819Z,101325.88
2023-07-20T09:04:41.386Z,101323.72
2023-07-20T09:06:45.799Z,101329.38
2023-07-20T09:08:49.929Z,101321.59
2023-07-20T09:10:53.538Z,101325.84
2023-07-20T09:12:57.712Z,101322.03
2023-07-20T09:15:01.466Z,101322.91
2023-07-20T09:17:05.469Z,101316.38
2023-07-20T09:19:10.749Z,101309.88
2023-07-20T09:21:14.392Z,101310.28
2023-07-20T09:23:19.511Z,101316.69
2023-07-20T09:25:25.370Z,101309.91
2023-07-20T09:27:38.797Z,101312.69
2023-07-20T09:29:51.711Z,101306.78
2023-07-20T09:32:05.323Z,101301.25
2023-07-20T09:34:10.597Z,101305.06
2023-07-20T09:36:56.900Z,101309.88
2023-07-20T09:45:01.934Z,101306.75
2023-07-20T09:47:05.879Z,101309.97
2023-07-20T09:51:22.220Z,101306.31
2023-07-20T09:53:28.165Z,101307.38
2023-07-20T09:55:32.910Z,101305.72
2023-07-20T09:57:37.054Z,101316.75
2023-07-20T09:59:40.867Z,101315.53
2023-07-20T10:01:46.557Z,101312.66
2023-07-20T10:03:51.860Z,101317.63
2023-07-20T10:05:59.922Z,101309.78
2023-07-20T10:10:13.855Z,101305.03
2023-07-20T10:12:18.540Z,101304.06
2023-07-20T10:14:23.431Z,101301.00
2023-07-20T10:16:28.871Z,101305.13
2023-07-20T10:18:37.890Z,101301.19
2023-07-20T10:21:43.777Z,101297.34
2023-07-20T10:23:09.289Z,101292.13
2023-07-20T10:25:12.199Z,101291.94
2023-07-20T10:27:16.306Z,101295.66
2023-07-20T10:29:20.706Z,101299.16
2023-07-20T10:31:25.369Z,101300.16
2023-07-20T10:33:29.429Z,101294.50
2023-07-20T10:35:33.377Z,101306.00
2023-07-20T10:37:50.242Z,101308.47
2023-07-20T10:39:58.404Z,101307.16
2023-07-20T10:42:06.499Z,101309.44
2023-07-20T10:44:11.719Z,101302.19
2023-07-20T10:46:15.838Z,101294.50
2023-07-20T10:48:21.184Z,101290.69
2023-07-20T10:50:24.241Z,101296.38
2023-07-20T10:52:30.252Z,101291.72
2023-07-20T10:54:52.516Z,101294.81
2023-07-20T10:56:58.957Z,101297.63
2023-07-20T10:59:03.705Z,101301.59
2023-07-20T11:01:07.777Z,101310.59
2023-07-20T11:03:11.542Z,101313.97
2023-07-20T11:05:37.660Z,101317.84
2023-07-20T11:07:42.686Z,101307.03
2023-07-20T11:09:49.171Z,101310.09
2023-07-20T11:12:11.364Z,101309.00
2023-07-20T11:14:26.512Z,101306.19
2023-07-20T11:16:44.814Z,101303.25
2023-07-20T11:18:49.647Z,101300.66
2023-07-20T11:20:53.570Z,101297.09
2023-07-20T11:22:57.785Z,101297.84
2023-07-20T11:25:01.519Z,101294.69
2023-07-20T11:27:05.557Z,101288.19
2023-07-20T11:29:20.965Z,101285.88
2023-07-20T11:31:30.668Z,101282.69
2023-07-20T11:33:34.698Z,101284.56
2023-07-20T11:35:44.413Z,101278.63
2023-07-20T11:37:48.223Z,101288.03
2023-07-20T11:39:52.098Z,101285.09
2023-07-20T11:41:58.157Z,101281.34
2023-07-20T11:44:00.748Z,101278.50
2023-07-20T11:46:05.482Z,101276.75
2023-07-20T11:48:16.620Z,101282.34
2023-07-20T11:50:20.212Z,101283.72
2023-07-20T11:52:26.487Z,101276.13
2023-07-20T11:54:30.583Z,101275.97
2023-07-20T11:56:33.265Z,101275.22
2023-07-20T11:58:37.015Z,101277.91
2023-07-20T12:00:41.663Z,101264.94
2023-07-20T12:02:45.401Z,101265.22
2023-07-20T12:04:50.984Z,101265.81
2023-07-20T12:06:56.671Z,101264.53
2023-07-20T12:09:01.518Z,101261.84
2023-07-20T12:11:04.165Z,101267.50
2023-07-20T12:13:08.446Z,101262.66
2023-07-20T12:15:17.604Z,101246.81
2023-07-20T12:17:21.878Z,101250.72
2023-07-20T12:19:28.482Z,101237.50
2023-07-20T12:21:34.346Z,101239.06
2023-07-20T12:23:38.496Z,101241.34
2023-07-20T12:25:43.046Z,101235.69
2023-07-20T12:27:48.376Z,101244.94
2023-07-20T12:29:52.333Z,101243.00
2023-07-20T12:31:56.180Z,101241.47
2023-07-20T12:34:00.639Z,101238.22
2023-07-20T12:36:04.691Z,101243.75
2023-07-20T12:38:10.027Z,101234.41
2023-07-20T12:40:13.333Z,101235.81
2023-07-20T12:42:18.217Z,101237.47
2023-07-20T12:44:22.116Z,101236.31
2023-07-20T12:46:26.879Z,101235.91
2023-07-20T12:48:31.000Z,101236.72
2023-07-20T12:50:34.600Z,101235.91
2023-07-20T12:52:39.675Z,101235.47
2023-07-20T12:54:44.927Z,101223.63
2023-07-20T12:58:55.045Z,101233.28
2023-07-20T13:01:01.445Z,101223.38
2023-07-20T13:03:10.027Z,101234.53
2023-07-20T13:05:14.116Z,101226.50
2023-07-20T13:09:25.838Z,101224.53
2023-07-20T13:11:32.466Z,101227.09
2023-07-20T13:13:36.872Z,101222.84
2023-07-20T13:15:45.323Z,101232.44
2023-07-20T13:17:49.282Z,101221.00
2023-07-20T13:19:53.615Z,101214.06
2023-07-20T13:21:58.384Z,101221.13
2023-07-20T13:24:01.817Z,101214.63
2023-07-20T13:26:05.762Z,101213.78
2023-07-20T13:28:10.824Z,101211.91
2023-07-20T13:30:17.979Z,101214.16
2023-07-20T13:32:22.497Z,101214.84
2023-07-20T13:34:29.754Z,101218.09
2023-07-20T13:36:34.008Z,101222.16
2023-07-20T13:38:40.358Z,101221.00
2023-07-20T13:40:44.688Z,101219.56
2023-07-20T13:42:48.534Z,101217.75
2023-07-20T13:44:52.963Z,101216.63
2023-07-20T13:47:21.797Z,101217.06
2023-07-20T13:49:23.554Z,101218.22
2023-07-20T13:51:28.481Z,101221.31
2023-07-20T13:57:46.475Z,101228.66
2023-07-20T13:59:52.285Z,101224.06
2023-07-20T14:04:05.559Z,101227.28
2023-07-20T14:08:16.458Z,101235.81
2023-07-20T14:10:21.458Z,101233.19
2023-07-20T14:12:25.259Z,101235.09
2023-07-20T14:14:28.925Z,101234.91
2023-07-20T14:16:33.834Z,101235.41
2023-07-20T14:18:39.202Z,101236.75
2023-07-20T14:20:42.901Z,101234.34
2023-07-20T14:22:47.064Z,101237.16
2023-07-20T14:24:51.014Z,101227.56
2023-07-20T14:26:53.961Z,101231.19
2023-07-20T14:28:59.160Z,101225.97
2023-07-20T14:31:03.203Z,101224.63
2023-07-20T14:33:07.144Z,101215.09
2023-07-20T14:35:12.643Z,101221.25
2023-07-20T14:37:16.558Z,101223.16
2023-07-20T14:39:20.976Z,101217.13
2023-07-20T14:43:27.939Z,101216.34
2023-07-20T14:45:31.985Z,101210.50
2023-07-20T14:47:36.784Z,101206.16
2023-07-20T14:49:41.945Z,101207.94
2023-07-20T14:51:48.266Z,101207.00
2023-07-20T14:53:51.981Z,101201.84
2023-07-20T14:55:55.905Z,101198.50
2023-07-20T14:57:59.555Z,101199.50
2023-07-20T15:00:04.052Z,101194.59
2023-07-20T15:02:08.505Z,101192.47
2023-07-20T15:04:12.539Z,101189.38
2023-07-20T15:06:16.072Z,101194.31
2023-07-20T15:08:21.475Z,101190.81
2023-07-20T15:10:25.045Z,101183.94
2023-07-20T15:12:28.676Z,101183.63
2023-07-20T15:14:32.249Z,101181.00
2023-07-20T15:16:36.757Z,101173.25
2023-07-20T15:18:47.940Z,101170.59
2023-07-20T15:20:55.309Z,101168.31
2023-07-20T15:22:59.220Z,101177.66
2023-07-20T15:25:05.516Z,101171.56
2023-07-20T15:27:09.451Z,101171.72
2023-07-20T15:31:20.201Z,101167.88
2023-07-20T15:33:25.581Z,101164.94
2023-07-20T15:35:30.798Z,101162.63
2023-07-20T15:37:34.545Z,101160.69
2023-07-20T15:39:38.191Z,101154.03
2023-07-20T15:41:43.417Z,101150.22
2023-07-20T15:43:48.485Z,101152.75
2023-07-20T15:45:52.352Z,101152.28
2023-07-20T15:47:56.533Z,101150.63
2023-07-20T15:50:01.055Z,101146.78
2023-07-20T15:52:08.070Z,101141.72
2023-07-20T15:54:12.895Z,101141.59
2023-07-20T15:56:16.501Z,101141.16
2023-07-20T15:58:21.656Z,101137.78
2023-07-20T16:00:26.260Z,101138.78
2023-07-20T16:02:30.198Z,101137.38
2023-07-20T16:04:33.994Z,101139.38
2023-07-20T16:06:38.283Z,101139.63
2023-07-20T16:08:41.977Z,101136.41
2023-07-20T16:10:45.609Z,101141.50
2023-07-20T16:12:49.140Z,101143.19
2023-07-20T16:17:01.025Z,101148.66
2023-07-20T16:19:05.121Z,101153.31
2023-07-20T16:21:08.597Z,101154.09
2023-07-20T16:23:12.257Z,101155.44
2023-07-20T16:25:16.234Z,101159.28
2023-07-20T16:27:19.803Z,101160.00
2023-07-20T16:29:25.445Z,101157.81
2023-07-20T16:31:30.803Z,101153.09
2023-07-20T16:33:34.673Z,101157.72
2023-07-20T16:44:45.834Z,101159.28
2023-07-20T16:48:56.361Z,101148.66
2023-07-20T16:50:59.754Z,101153.47
2023-07-20T16:53:03.606Z,101145.63
2023-07-20T16:55:07.971Z,101141.44
2023-07-20T16:57:11.806Z,101151.25
2023-07-20T16:59:15.438Z,101150.59
2023-07-20T17:01:19.024Z,101145.53
2023-07-20T17:03:24.347Z,101144.00
2023-07-20T17:05:28.044Z,101139.09
2023-07-20T17:07:31.686Z,101136.00
2023-07-20T17:09:36.884Z,101138.41
2023-07-20T17:11:40.438Z,101136.97
2023-07-20T17:13:44.143Z,101135.31
2023-07-20T17:15:51.101Z,101132.47
2023-07-20T17:17:54.922Z,101143.09
2023-07-20T17:22:06.969Z,101154.78
2023-07-20T17:24:11.806Z,101156.38
2023-07-20T17:30:29.584Z,101160.06
2023-07-20T17:32:34.441Z,101142.97
2023-07-20T17:34:41.413Z,101148.34
2023-07-20T17:38:53.122Z,101138.66
2023-07-20T17:40:56.702Z,101141.91
2023-07-20T17:45:07.024Z,101129.88
2023-07-20T17:49:16.944Z,101131.41
2023-07-20T17:51:20.580Z,101123.53
2023-07-20T17:53:27.050Z,101118.38
2023-07-20T17:55:30.835Z,101119.56
2023-07-20T17:57:33.701Z,101113.66
2023-07-20T18:00:38.219Z,101121.47
2023-07-20T18:02:04.380Z,101123.88
2023-07-20T18:04:09.429Z,101123.59
2023-07-20T18:06:13.218Z,101119.69
2023-07-20T18:08:17.050Z,101121.13
2023-07-20T18:10:22.271Z,101122.31
2023-07-20T18:12:26.755Z,101124.44
2023-07-20T18:14:30.304Z,101127.72
2023-07-20T18:16:34.201Z,101122.38
2023-07-20T18:18:37.899Z,101123.22
2023-07-20T18:20:41.595Z,101124.78
2023-07-20T18:22:45.227Z,101122.69
2023-07-20T18:24:49.421Z,101125.50
2023-07-20T18:26:55.290Z,101124.03
2023-07-20T18:28:58.902Z,101129.09
2023-07-20T18:31:06.687Z,101123.56
2023-07-20T18:33:10.289Z,101120.41
2023-07-20T18:35:14.269Z,101112.66
2023-07-20T18:37:20.966Z,101121.06
2023-07-20T18:39:24.650Z,101124.97
2023-07-20T18:41:28.429Z,101131.69
2023-07-20T18:43:33.479Z,101128.81
2023-07-20T18:45:37.372Z,101127.63
2023-07-20T18:47:41.612Z,101124.50
2023-07-20T18:49:45.512Z,101129.22
2023-07-20T18:51:50.002Z,101131.06
2023-07-20T18:53:54.352Z,101133.22
2023-07-20T18:55:58.425Z,101130.09
2023-07-20T18:58:02.434Z,101134.59
2023-07-20T19:00:09.052Z,101129.63
2023-07-20T19:02:12.808Z,101129.41
2023-07-20T19:04:16.345Z,101130.75
2023-07-20T19:06:19.903Z,101127.50
2023-07-20T19:08:23.459Z,101125.03
2023-07-20T19:10:28.738Z,101127.13
2023-07-20T19:12:32.360Z,101131.88
2023-07-20T19:14:35.839Z,101130.16
2023-07-20T19:16:40.924Z,101126.78
2023-07-20T19:18:44.587Z,101125.06
2023-07-20T19:20:47.196Z,101126.91
2023-07-20T19:22:50.776Z,101128.72
2023-07-20T19:24:54.612Z,101128.72
2023-07-20T19:26:58.482Z,101127.88
2023-07-20T19:29:02.110Z,101133.22
2023-07-20T19:31:06.430Z,101131.53
2023-07-20T19:33:11.453Z,101129.72
2023-07-20T19:35:15.413Z,101128.72
2023-07-20T19:37:19.047Z,101131.38
2023-07-20T19:39:22.593Z,101135.06
2023-07-20T19:41:26.155Z,101131.66
2023-07-20T19:43:30.276Z,101130.94
2023-07-20T19:45:33.880Z,101131.16
2023-07-20T19:47:37.469Z,101131.41
2023-07-20T19:49:42.655Z,101136.19
2023-07-20T19:51:46.325Z,101142.59
2023-07-20T19:56:01.797Z,101141.25
2023-07-20T19:58:05.461Z,101134.34
2023-07-20T20:00:12.971Z,101139.91
2023-07-20T20:02:16.740Z,101137.38
2023-07-20T20:06:29.139Z,101138.47
2023-07-20T20:08:33.425Z,101141.25
2023-07-20T20:12:45.103Z,101135.34
2023-07-20T20:14:48.710Z,101136.31
2023-07-20T20:16:53.505Z,101139.81
2023-07-20T20:18:56.953Z,101144.56
2023-07-20T20:21:00.405Z,101143.56
2023-07-20T20:23:17.683Z,101144.56
2023-07-20T20:25:21.270Z,101148.91
2023-07-20T20:27:23.855Z,101152.56
2023-07-20T20:29:29.181Z,101152.56
2023-07-20T20:31:33.070Z,101147.31
2023-07-20T20:33:38.632Z,101145.88
2023-07-20T20:35:43.685Z,101151.19
2023-07-20T20:37:47.286Z,101154.00
2023-07-20T20:39:52.448Z,101150.50
2023-07-20T20:41:55.955Z,101147.94
2023-07-20T20:43:59.771Z,101153.50
2023-07-20T20:46:06.234Z,101161.63
2023-07-20T20:48:10.288Z,101152.78
2023-07-20T20:50:14.449Z,101160.91
2023-07-20T20:52:19.078Z,101153.03
2023-07-20T20:54:22.628Z,101161.16
2023-07-20T20:56:31.070Z,101154.13
2023-07-20T20:58:35.607Z,101158.72
2023-07-20T21:00:39.413Z,101161.50
2023-07-20T21:02:43.910Z,101163.34
2023-07-20T21:04:50.934Z,101165.25
2023-07-20T21:06:54.632Z,101163.56
2023-07-20T21:08:58.125Z,101163.66
2023-07-20T21:11:01.780Z,101162.91
2023-07-20T21:13:06.878Z,101165.72
2023-07-20T21:15:11.450Z,101159.50
2023-07-20T21:17:15.004Z,101164.13
2023-07-20T21:19:18.600Z,101167.88
2023-07-20T21:21:22.240Z,101164.59
2023-07-20T21:23:25.961Z,101168.34
2023-07-20T21:25:29.662Z,101168.56
2023-07-20T21:27:33.725Z,101171.38
2023-07-20T21:29:38.904Z,101167.97
2023-07-20T21:31:42.478Z,101167.09
2023-07-20T21:33:46.674Z,101165.41
2023-07-20T21:35:50.255Z,101161.91
2023-07-20T21:37:54.702Z,101169.06
2023-07-20T21:39:58.416Z,101170.97
2023-07-20T21:42:01.918Z,101163.09
2023-07-20T21:44:05.691Z,101168.56
2023-07-20T21:46:10.658Z,101180.31
2023-07-20T21:48:14.403Z,101178.59
2023-07-20T21:50:20.120Z,101179.59
2023-07-20T21:52:23.833Z,101174.25
2023-07-20T21:54:27.752Z,101182.13
2023-07-20T21:56:31.258Z,101178.47
2023-07-20T21:58:34.899Z,101180.19
2023-07-20T22:00:38.510Z,101174.13
2023-07-20T22:02:43.627Z,101173.13
2023-07-20T22:04:46.732Z,101177.63
2023-07-20T22:06:50.757Z,101172.31
2023-07-20T22:08:54.325Z,101180.41
2023-07-20T22:10:57.823Z,101175.94
2023-07-20T22:13:01.602Z,101176.91
2023-07-20T22:15:06.072Z,101164.66
2023-07-20T22:17:10.545Z,101170.00
2023-07-20T22:19:20.325Z,101170.13
2023-07-20T22:21:24.199Z,101178.94
2023-07-20T22:23:28.319Z,101161.38
2023-07-20T22:25:31.955Z,101178.31
2023-07-20T22:27:35.508Z,101171.31
2023-07-20T22:29:40.486Z,101174.06
2023-07-20T22:31:44.084Z,101176.84
2023-07-20T22:33:48.888Z,101170.81
2023-07-20T22:35:53.943Z,101169.09
2023-07-20T22:37:56.580Z,101164.84
2023-07-20T22:40:00.084Z,101166.66
2023-07-20T22:42:04.862Z,101165.91
2023-07-20T22:44:08.507Z,101170.41
2023-07-20T22:46:12.174Z,101159.97
2023-07-20T22:48:16.750Z,101162.66
2023-07-20T22:50:19.273Z,101164.44
2023-07-20T22:52:24.377Z,101160.06
2023-07-20T22:54:28.256Z,101158.38
2023-07-20T22:56:32.602Z,101154.97
2023-07-20T22:58:36.220Z,101163.94
2023-07-20T23:00:40.600Z,101155.22
2023-07-20T23:02:45.243Z,101152.53
2023-07-20T23:04:49.146Z,101154.38
2023-07-20T23:06:53.173Z,101152.66
2023-07-20T23:08:59.950Z,101156.41
2023-07-20T23:11:05.130Z,101153.75
2023-07-20T23:13:08.715Z,101153.09
2023-07-20T23:15:13.627Z,101157.72
2023-07-20T23:17:17.793Z,101160.63
2023-07-20T23:19:21.493Z,101159.03
2023-07-20T23:21:25.068Z,101154.78
2023-07-20T23:23:28.757Z,101149.66
2023-07-20T23:25:33.805Z,101152.53
2023-07-20T23:27:36.397Z,101153.63
2023-07-20T23:29:40.749Z,101153.84
2023-07-20T23:31:44.552Z,101153.22
2023-07-20T23:33:48.033Z,101147.28
2023-07-20T23:35:51.996Z,101153.69
2023-07-20T23:37:56.576Z,101153.03
2023-07-20T23:40:00.276Z,101152.31
2023-07-20T23:42:08.626Z,101149.84
2023-07-20T23:44:12.169Z,101159.66
2023-07-20T23:46:24.372Z,101152.75
2023-07-20T23:48:31.320Z,101147.66
2023-07-20T23:50:34.929Z,101145.22
2023-07-20T23:52:39.160Z,101144.47
2023-07-20T23:54:43.004Z,101147.13
2023-07-20T23:56:47.657Z,101150.75
2023-07-20T23:58:52.716Z,101154.28
